createdAt,value
2022-08-05T00:00:26.966Z,42.00
2022-08-05T00:02:58.597Z,41.81
2022-08-05T00:06:05.047Z,42.94
2022-08-05T00:08:35.284Z,43.99
2022-08-05T00:11:20.544Z,44.66
2022-08-05T00:13:57.692Z,44.48
2022-08-05T00:16:35.601Z,44.50
2022-08-05T00:19:06.934Z,44.10
2022-08-05T00:21:36.223Z,43.87
2022-08-05T00:24:10.907Z,44.34
2022-08-05T00:26:50.855Z,44.29
2022-08-05T00:29:25.476Z,44.28
2022-08-05T00:32:12.635Z,44.94
2022-08-05T00:35:04.856Z,45.23
2022-08-05T00:37:53.454Z,45.71
2022-08-05T00:40:28.985Z,45.84
2022-08-05T00:43:02.247Z,45.84
2022-08-05T00:45:42.732Z,46.19
2022-08-05T00:48:15.852Z,46.77
2022-08-05T00:50:47.621Z,47.39
2022-08-05T00:53:45.246Z,47.32
2022-08-05T00:56:10.056Z,47.70
2022-08-05T00:58:42.516Z,47.51
2022-08-05T01:01:42.057Z,47.94
2022-08-05T01:04:13.725Z,48.31
2022-08-05T01:06:48.564Z,48.39
2022-08-05T01:09:20.274Z,48.40
2022-08-05T01:11:52.877Z,48.59
2022-08-05T01:14:27.847Z,49.09
2022-08-05T01:17:24.029Z,49.22
2022-08-05T01:20:13.772Z,49.67
2022-08-05T01:23:14.564Z,49.59
2022-08-05T01:26:16.345Z,49.59
2022-08-05T01:29:05.230Z,49.72
2022-08-05T01:31:55.041Z,50.00
2022-08-05T01:34:38.093Z,49.97
2022-08-05T01:37:32.114Z,50.09
2022-08-05T01:40:03.467Z,50.47
2022-08-05T01:42:34.133Z,50.27
2022-08-05T01:45:08.205Z,50.50
2022-08-05T01:47:43.259Z,50.50
2022-08-05T01:50:28.779Z,50.41
2022-08-05T01:53:02.381Z,50.93
2022-08-05T01:55:36.080Z,50.60
2022-08-05T01:58:15.367Z,50.58
2022-08-05T02:00:50.265Z,50.91
2022-08-05T02:03:36.222Z,51.23
2022-08-05T02:06:33.537Z,51.06
2022-08-05T02:08:58.613Z,50.90
2022-08-05T02:11:32.940Z,51.17
2022-08-05T02:14:20.891Z,51.02
2022-08-05T02:16:56.626Z,51.24
2022-08-05T02:19:35.431Z,50.90
2022-08-05T02:22:25.661Z,51.07
2022-08-05T02:25:00.046Z,50.83
2022-08-05T02:27:57.975Z,51.40
2022-08-05T02:30:20.943Z,51.17
2022-08-05T02:32:53.356Z,51.38
2022-08-05T02:35:27.814Z,51.27
2022-08-05T02:38:02.613Z,51.27
2022-08-05T02:40:32.521Z,51.10
2022-08-05T02:43:03.790Z,51.51
2022-08-05T02:45:52.806Z,51.71
2022-08-05T02:48:29.196Z,51.42
2022-08-05T02:51:03.255Z,51.51
2022-08-05T02:53:39.772Z,51.66
2022-08-05T02:56:16.119Z,51.62
2022-08-05T02:58:51.578Z,51.74
2022-08-05T03:01:29.480Z,51.43
2022-08-05T03:04:14.092Z,51.65
2022-08-05T03:06:56.029Z,51.77
2022-08-05T03:09:38.083Z,51.46
2022-08-05T03:12:09.934Z,52.06
2022-08-05T03:14:45.850Z,51.96
2022-08-05T03:17:16.093Z,51.91
2022-08-05T03:19:45.979Z,51.72
2022-08-05T03:22:32.266Z,51.94
2022-08-05T03:25:34.137Z,51.88
2022-08-05T03:27:59.218Z,51.58
2022-08-05T03:30:34.454Z,52.05
2022-08-05T03:33:05.587Z,52.08
2022-08-05T03:35:41.196Z,51.84
2022-08-05T03:38:15.001Z,51.74
2022-08-05T03:40:48.691Z,51.47
2022-08-05T03:44:09.024Z,51.74
2022-08-05T03:46:08.689Z,51.70
2022-08-05T03:48:39.204Z,52.03
2022-08-05T03:52:37.213Z,51.71
2022-08-05T03:55:50.444Z,51.72
2022-08-05T03:57:29.056Z,51.46
2022-08-05T04:00:15.964Z,47.55
2022-08-05T04:02:57.956Z,48.17
2022-08-05T04:05:38.648Z,47.72
2022-08-05T04:08:29.581Z,47.63
2022-08-05T04:11:04.732Z,48.45
2022-08-05T04:13:49.899Z,49.90
2022-08-05T04:16:25.370Z,50.05
2022-08-05T04:19:02.493Z,50.81
2022-08-05T04:23:16.071Z,50.99
2022-08-05T04:26:00.733Z,50.95
2022-08-05T04:28:31.845Z,51.53
2022-08-05T04:31:02.069Z,51.63
2022-08-05T04:34:18.975Z,51.96
2022-08-05T04:36:45.634Z,52.75
2022-08-05T04:39:16.566Z,54.12
2022-08-05T04:41:46.049Z,53.60
2022-08-05T04:44:21.400Z,53.53
2022-08-05T04:47:09.533Z,54.57
2022-08-05T04:50:02.816Z,55.69
2022-08-05T04:52:33.317Z,55.82
2022-08-05T04:55:13.931Z,55.93
2022-08-05T04:57:51.646Z,55.26
2022-08-05T05:00:23.847Z,55.22
2022-08-05T05:02:54.753Z,55.55
2022-08-05T05:05:28.270Z,55.68
2022-08-05T05:08:05.718Z,56.07
2022-08-05T05:10:56.377Z,56.02
2022-08-05T05:13:26.511Z,56.30
2022-08-05T05:16:05.944Z,56.59
2022-08-05T05:18:36.546Z,56.38
2022-08-05T05:21:09.857Z,56.62
2022-08-05T05:24:02.310Z,56.94
2022-08-05T05:26:32.999Z,57.40
2022-08-05T05:29:14.397Z,57.14
2022-08-05T05:31:46.443Z,57.08
2022-08-05T05:34:18.074Z,57.48
2022-08-05T05:36:54.346Z,57.51
2022-08-05T05:39:24.680Z,57.85
2022-08-05T05:42:01.077Z,58.01
2022-08-05T05:44:36.390Z,57.72
2022-08-05T05:47:21.865Z,57.91
2022-08-05T05:49:56.496Z,58.48
2022-08-05T05:52:30.018Z,58.35
2022-08-05T05:55:13.120Z,58.69
2022-08-05T05:57:52.607Z,58.50
2022-08-05T06:00:27.559Z,58.10
2022-08-05T06:03:02.461Z,58.50
2022-08-05T06:05:32.501Z,58.64
2022-08-05T06:08:03.860Z,58.37
2022-08-05T06:10:37.428Z,58.84
2022-08-05T06:13:18.413Z,58.96
2022-08-05T06:16:30.124Z,59.23
2022-08-05T06:18:39.353Z,59.51
2022-08-05T06:21:18.565Z,59.38
2022-08-05T06:23:49.838Z,59.50
2022-08-05T06:26:21.242Z,59.25
2022-08-05T06:28:53.437Z,58.96
2022-08-05T06:31:23.197Z,59.04
2022-08-05T06:34:07.100Z,59.37
2022-08-05T06:36:57.534Z,59.43
2022-08-05T06:39:28.334Z,59.53
2022-08-05T06:42:05.175Z,59.47
2022-08-05T06:44:34.664Z,59.63
2022-08-05T06:47:04.405Z,59.23
2022-08-05T06:50:00.101Z,59.98
2022-08-05T06:52:36.941Z,59.90
2022-08-05T06:55:08.552Z,59.46
2022-08-05T06:58:02.746Z,59.51
2022-08-05T07:00:27.826Z,59.73
2022-08-05T07:02:59.187Z,59.80
2022-08-05T07:05:37.169Z,59.67
2022-08-05T07:08:10.001Z,59.58
2022-08-05T07:13:59.275Z,59.86
2022-08-05T07:17:56.940Z,59.81
2022-08-05T07:20:22.965Z,59.87
2022-08-05T07:22:30.202Z,59.85
2022-08-05T07:25:22.064Z,59.98
2022-08-05T07:27:58.502Z,59.72
2022-08-05T07:30:34.593Z,59.74
2022-08-05T07:33:16.497Z,59.99
2022-08-05T07:36:01.815Z,60.19
2022-08-05T07:38:43.549Z,60.22
2022-08-05T07:42:14.526Z,59.78
2022-08-05T07:44:14.376Z,59.75
2022-08-05T07:46:49.664Z,59.94
2022-08-05T07:49:20.434Z,59.63
2022-08-05T07:51:54.327Z,59.42
2022-08-05T07:54:30.629Z,59.58
2022-08-05T07:57:22.477Z,59.52
2022-08-05T07:59:56.732Z,59.62
2022-08-05T08:02:31.401Z,59.87
2022-08-05T08:05:19.146Z,59.63
2022-08-05T08:08:00.005Z,59.94
2022-08-05T08:10:30.780Z,59.83
2022-08-05T08:13:01.486Z,59.65
2022-08-05T08:16:34.352Z,59.34
2022-08-05T08:18:22.037Z,59.41
2022-08-05T08:21:02.475Z,59.78
2022-08-05T08:24:03.682Z,59.25
2022-08-05T08:26:29.974Z,59.39
2022-08-05T08:29:09.755Z,59.29
2022-08-05T08:31:51.072Z,59.73
2022-08-05T08:34:30.166Z,59.59
2022-08-05T08:37:04.779Z,58.93
2022-08-05T08:39:38.244Z,59.32
2022-08-05T08:42:34.399Z,59.41
2022-08-05T08:45:23.173Z,59.25
2022-08-05T08:48:10.434Z,59.19
2022-08-05T08:51:04.126Z,58.99
2022-08-05T08:53:45.020Z,59.35
2022-08-05T08:56:15.037Z,59.08
2022-08-05T08:58:48.829Z,59.32
2022-08-05T09:01:20.041Z,59.36
2022-08-05T09:03:55.402Z,58.95
2022-08-05T09:06:28.563Z,58.78
2022-08-05T09:09:03.768Z,58.90
2022-08-05T09:11:50.723Z,58.43
2022-08-05T09:14:59.093Z,58.90
2022-08-05T09:17:42.386Z,59.10
2022-08-05T09:20:08.529Z,58.79
2022-08-05T09:23:09.601Z,59.01
2022-08-05T09:26:01.029Z,58.41
2022-08-05T09:28:34.534Z,58.58
2022-08-05T09:31:43.824Z,58.54
2022-08-05T09:34:05.472Z,58.35
2022-08-05T09:36:55.011Z,58.63
2022-08-05T09:39:41.148Z,58.83
2022-08-05T09:42:24.491Z,58.38
2022-08-05T09:45:17.982Z,58.71
2022-08-05T09:47:56.165Z,58.69
2022-08-05T09:50:44.136Z,58.67
2022-08-05T09:53:26.247Z,58.62
2022-08-05T09:56:12.829Z,58.20
2022-08-05T09:58:43.040Z,58.23
2022-08-05T10:01:31.538Z,58.09
2022-08-05T10:04:10.109Z,58.54
2022-08-05T10:06:49.923Z,58.51
2022-08-05T10:09:28.326Z,58.45
2022-08-05T10:12:31.678Z,58.11
2022-08-05T10:15:34.302Z,58.11
2022-08-05T10:18:17.422Z,58.25
2022-08-05T10:20:52.123Z,58.43
2022-08-05T10:23:56.521Z,58.41
2022-08-05T10:26:15.796Z,58.32
2022-08-05T10:28:46.720Z,58.18
2022-08-05T10:34:25.928Z,58.27
2022-08-05T10:37:02.375Z,58.21
2022-08-05T10:39:59.385Z,58.45
2022-08-05T10:42:34.178Z,58.35
2022-08-05T10:45:21.257Z,57.77
2022-08-05T10:48:29.931Z,58.33
2022-08-05T10:51:22.275Z,58.24
2022-08-05T10:54:01.654Z,58.01
2022-08-05T10:56:33.207Z,58.12
2022-08-05T10:59:12.154Z,57.58
2022-08-05T11:02:04.890Z,57.84
2022-08-05T11:04:52.758Z,57.23
2022-08-05T11:07:32.982Z,57.46
2022-08-05T11:10:27.578Z,57.48
2022-08-05T11:12:59.355Z,57.52
2022-08-05T11:15:58.889Z,57.76
2022-08-05T11:18:32.235Z,57.37
2022-08-05T11:21:06.331Z,57.60
2022-08-05T11:24:04.679Z,57.62
2022-08-05T11:26:49.778Z,57.86
2022-08-05T11:29:51.517Z,57.53
2022-08-05T11:32:29.527Z,57.22
2022-08-05T11:34:59.317Z,57.82
2022-08-05T11:38:28.524Z,57.71
2022-08-05T11:41:12.798Z,57.66
2022-08-05T11:44:40.453Z,57.70
2022-08-05T11:47:11.194Z,57.63
2022-08-05T11:49:49.738Z,57.81
2022-08-05T11:52:31.217Z,57.51
2022-08-05T11:55:07.795Z,57.79
2022-08-05T11:58:09.556Z,57.36
2022-08-05T12:00:38.625Z,57.47
2022-08-05T12:03:23.933Z,57.55
2022-08-05T12:06:10.087Z,57.84
2022-08-05T12:08:59.031Z,57.78
2022-08-05T12:11:40.307Z,57.71
2022-08-05T12:14:11.895Z,58.02
2022-08-05T12:16:45.422Z,57.78
2022-08-05T12:20:25.284Z,57.69
2022-08-05T12:22:09.668Z,57.66
2022-08-05T12:24:49.580Z,58.26
2022-08-05T12:27:32.628Z,58.38
2022-08-05T12:30:10.698Z,58.40
2022-08-05T12:32:52.703Z,57.96
2022-08-05T12:35:39.483Z,58.30
2022-08-05T12:38:10.262Z,57.87
2022-08-05T12:40:43.505Z,58.42
2022-08-05T12:43:20.719Z,58.44
2022-08-05T12:45:59.400Z,58.39
2022-08-05T12:48:32.868Z,58.55
2022-08-05T12:52:11.091Z,58.38
2022-08-05T12:54:16.654Z,58.72
2022-08-05T12:56:54.741Z,58.51
2022-08-05T13:00:08.786Z,58.45
2022-08-05T13:02:30.603Z,58.68
2022-08-05T13:05:01.852Z,57.97
2022-08-05T13:08:00.010Z,60.33
2022-08-05T13:10:26.931Z,61.31
2022-08-05T13:12:59.014Z,62.48
2022-08-05T13:15:49.210Z,58.69
2022-08-05T13:18:20.965Z,54.35
2022-08-05T13:20:52.607Z,56.08
2022-08-05T13:23:23.185Z,53.69
2022-08-05T13:25:59.310Z,53.51
2022-08-05T13:28:32.083Z,53.30
2022-08-05T13:31:11.231Z,52.84
2022-08-05T13:34:24.736Z,52.99
2022-08-05T13:36:35.279Z,51.70
2022-08-05T13:40:14.008Z,51.38
2022-08-05T13:41:59.126Z,50.84
2022-08-05T13:44:28.917Z,50.52
2022-08-05T13:47:01.995Z,50.05
2022-08-05T13:49:35.337Z,50.29
2022-08-05T13:52:18.142Z,50.23
2022-08-05T13:54:53.456Z,49.40
2022-08-05T13:57:26.820Z,49.09
2022-08-05T14:00:16.768Z,49.24
2022-08-05T14:02:46.925Z,48.76
2022-08-05T14:05:19.450Z,49.05
2022-08-05T14:08:05.860Z,48.59
2022-08-05T14:10:41.876Z,48.55
2022-08-05T14:13:11.768Z,48.22
2022-08-05T14:16:08.908Z,48.61
2022-08-05T14:18:38.423Z,48.67
2022-08-05T14:22:06.763Z,49.03
2022-08-05T14:24:00.678Z,49.41
2022-08-05T14:26:35.662Z,49.43
2022-08-05T14:29:16.659Z,49.03
2022-08-05T14:32:02.435Z,48.72
2022-08-05T14:34:39.174Z,48.90
2022-08-05T14:37:14.068Z,48.47
2022-08-05T14:39:49.429Z,48.72
2022-08-05T14:42:29.436Z,49.05
2022-08-05T14:44:59.387Z,48.85
2022-08-05T14:48:04.006Z,49.32
2022-08-05T14:50:20.895Z,49.00
2022-08-05T14:52:57.751Z,48.97
2022-08-05T14:55:39.154Z,49.18
2022-08-05T14:58:13.997Z,49.03
2022-08-05T15:00:58.048Z,49.55
2022-08-05T15:03:33.875Z,49.45
2022-08-05T15:06:15.446Z,49.64
2022-08-05T15:08:59.705Z,49.82
2022-08-05T15:11:53.017Z,49.91
2022-08-05T15:14:35.551Z,49.90
2022-08-05T15:17:44.614Z,50.05
2022-08-05T15:20:02.680Z,50.19
2022-08-05T15:22:33.730Z,50.19
2022-08-05T15:25:14.143Z,50.27
2022-08-05T15:27:52.083Z,50.50
2022-08-05T15:30:22.443Z,50.69
2022-08-05T15:32:53.348Z,50.67
2022-08-05T15:35:25.638Z,50.33
2022-08-05T15:38:32.448Z,50.93
2022-08-05T15:41:21.295Z,51.18
2022-08-05T15:43:45.408Z,51.22
2022-08-05T15:46:20.838Z,50.74
2022-08-05T15:49:00.647Z,51.15
2022-08-05T15:52:12.679Z,51.51
2022-08-05T15:54:34.848Z,52.04
2022-08-05T15:57:07.408Z,52.43
2022-08-05T15:59:39.245Z,51.97
2022-08-05T16:02:14.763Z,52.19
2022-08-05T16:04:49.850Z,52.38
2022-08-05T16:07:19.141Z,52.40
2022-08-05T16:09:52.365Z,52.63
2022-08-05T16:12:23.635Z,52.78
2022-08-05T16:14:54.604Z,52.59
2022-08-05T16:17:24.385Z,53.11
2022-08-05T16:20:11.773Z,53.44
2022-08-05T16:22:46.091Z,52.69
2022-08-05T16:25:16.343Z,53.36
2022-08-05T16:28:00.987Z,53.52
2022-08-05T16:30:36.309Z,53.20
2022-08-05T16:33:05.906Z,53.54
2022-08-05T16:35:42.175Z,53.64
2022-08-05T16:38:18.331Z,53.55
2022-08-05T16:41:00.096Z,54.12
2022-08-05T16:43:32.561Z,53.95
2022-08-05T16:46:12.869Z,54.23
2022-08-05T16:48:53.066Z,54.34
2022-08-05T16:51:30.639Z,54.32
2022-08-05T16:54:17.364Z,54.03
2022-08-05T16:56:48.630Z,54.74
2022-08-05T16:59:23.535Z,54.19
2022-08-05T17:01:56.485Z,54.12
2022-08-05T17:04:28.639Z,54.36
2022-08-05T17:07:03.211Z,54.31
2022-08-05T17:09:57.194Z,54.32
2022-08-05T17:12:50.480Z,54.18
2022-08-05T17:15:19.697Z,54.71
2022-08-05T17:17:54.843Z,54.67
2022-08-05T17:20:26.641Z,54.26
2022-08-05T17:22:56.838Z,54.18
2022-08-05T17:25:39.644Z,54.37
2022-08-05T17:28:10.462Z,54.81
2022-08-05T17:30:50.551Z,54.69
2022-08-05T17:33:23.088Z,54.58
2022-08-05T17:36:09.633Z,54.63
2022-08-05T17:38:42.192Z,55.10
2022-08-05T17:42:16.414Z,54.86
2022-08-05T17:44:01.719Z,55.09
2022-08-05T17:46:33.087Z,54.61
2022-08-05T17:49:03.435Z,55.06
2022-08-05T17:51:40.590Z,54.93
2022-08-05T17:54:11.425Z,54.85
2022-08-05T17:56:43.589Z,54.76
2022-08-05T17:59:14.114Z,55.07
2022-08-05T18:01:50.652Z,55.05
2022-08-05T18:04:21.249Z,54.98
2022-08-05T18:06:54.469Z,54.94
2022-08-05T18:09:59.058Z,55.08
2022-08-05T18:12:22.359Z,55.22
2022-08-05T18:14:54.145Z,55.24
2022-08-05T18:17:59.025Z,55.18
2022-08-05T18:20:15.149Z,55.24
2022-08-05T18:22:54.597Z,55.17
2022-08-05T18:25:33.012Z,55.37
2022-08-05T18:28:05.039Z,55.62
2022-08-05T18:30:35.552Z,55.50
2022-08-05T18:33:13.842Z,55.84
2022-08-05T18:35:59.681Z,55.73
2022-08-05T18:38:32.677Z,56.15
2022-08-05T18:41:57.518Z,56.17
2022-08-05T18:43:54.279Z,55.83
2022-08-05T18:46:26.069Z,55.72
2022-08-05T18:49:18.191Z,55.60
2022-08-05T18:52:09.078Z,55.93
2022-08-05T18:54:41.358Z,56.18
2022-08-05T18:57:16.737Z,56.06
2022-08-05T19:00:03.168Z,56.09
2022-08-05T19:02:34.353Z,55.80
2022-08-05T19:06:05.722Z,56.47
2022-08-05T19:07:54.266Z,56.18
2022-08-05T19:10:28.470Z,56.12
2022-08-05T19:12:59.252Z,56.31
2022-08-05T19:15:58.828Z,56.51
2022-08-05T19:18:21.929Z,56.40
2022-08-05T19:20:53.952Z,56.46
2022-08-05T19:24:06.803Z,56.51
2022-08-05T19:26:15.126Z,56.02
2022-08-05T19:28:46.204Z,56.23
2022-08-05T19:31:19.173Z,56.84
2022-08-05T19:33:56.344Z,56.36
2022-08-05T19:36:29.804Z,57.05
2022-08-05T19:39:01.906Z,57.07
2022-08-05T19:41:58.124Z,56.46
2022-08-05T19:44:23.197Z,56.75
2022-08-05T19:46:58.422Z,57.17
2022-08-05T19:49:27.770Z,56.60
2022-08-05T19:52:08.645Z,57.49
2022-08-05T19:54:48.894Z,57.20
2022-08-05T19:57:48.917Z,56.68
2022-08-05T20:00:11.882Z,56.82
2022-08-05T20:02:42.007Z,57.03
2022-08-05T20:05:16.443Z,57.08
2022-08-05T20:07:59.103Z,56.72
2022-08-05T20:10:28.506Z,57.43
2022-08-05T20:12:58.346Z,57.03
2022-08-05T20:15:52.264Z,57.36
2022-08-05T20:18:35.866Z,56.97
2022-08-05T20:21:07.167Z,57.56
2022-08-05T20:23:44.539Z,57.37
2022-08-05T20:26:23.259Z,57.57
2022-08-05T20:28:55.807Z,57.81
2022-08-05T20:31:42.800Z,57.28
2022-08-05T20:34:20.368Z,57.14
2022-08-05T20:36:50.579Z,57.46
2022-08-05T20:39:20.031Z,57.49
2022-08-05T20:41:49.794Z,57.09
2022-08-05T20:44:30.178Z,57.19
2022-08-05T20:47:03.314Z,57.31
2022-08-05T20:49:39.466Z,57.46
2022-08-05T20:52:10.811Z,57.27
2022-08-05T20:54:59.429Z,57.29
2022-08-05T20:57:43.788Z,57.52
2022-08-05T21:00:40.619Z,57.17
2022-08-05T21:03:07.563Z,56.05
2022-08-05T21:05:53.680Z,56.39
2022-08-05T21:08:26.637Z,59.38
2022-08-05T21:11:09.148Z,59.49
2022-08-05T21:13:48.008Z,58.93
2022-08-05T21:16:30.382Z,58.41
2022-08-05T21:19:04.478Z,58.72
2022-08-05T21:21:39.414Z,58.44
2022-08-05T21:24:15.368Z,58.55
2022-08-05T21:26:53.444Z,57.48
2022-08-05T21:29:32.222Z,57.12
2022-08-05T21:32:04.026Z,56.35
2022-08-05T21:34:35.503Z,56.54
2022-08-05T21:37:06.215Z,56.45
2022-08-05T21:39:40.664Z,57.21
2022-08-05T21:42:30.690Z,56.94
2022-08-05T21:45:00.645Z,57.09
2022-08-05T21:47:54.823Z,56.96
2022-08-05T21:50:19.442Z,56.89
2022-08-05T21:52:51.630Z,56.57
2022-08-05T21:56:01.477Z,56.58
2022-08-05T21:58:13.450Z,56.29
2022-08-05T22:00:51.059Z,56.46
2022-08-05T22:03:48.264Z,56.58
2022-08-05T22:06:10.589Z,56.28
2022-08-05T22:08:43.587Z,56.55
2022-08-05T22:11:34.814Z,55.98
2022-08-05T22:14:33.277Z,56.13
2022-08-05T22:17:00.205Z,56.18
2022-08-05T22:20:01.621Z,56.08
2022-08-05T22:22:27.921Z,55.78
2022-08-05T22:25:27.712Z,55.98
2022-08-05T22:28:13.006Z,55.76
2022-08-05T22:30:44.171Z,56.24
2022-08-05T22:33:57.026Z,55.99
2022-08-05T22:36:15.583Z,56.10
2022-08-05T22:38:48.965Z,56.02
2022-08-05T22:41:26.395Z,56.16
2022-08-05T22:44:12.038Z,55.88
2022-08-05T22:46:42.509Z,56.05
2022-08-05T22:50:17.442Z,56.17
2022-08-05T22:52:13.829Z,55.81
2022-08-05T22:54:52.337Z,55.74
2022-08-05T22:57:22.918Z,55.98
2022-08-05T23:00:31.354Z,55.58
2022-08-05T23:03:04.334Z,55.97
2022-08-05T23:05:36.113Z,55.49
2022-08-05T23:08:06.375Z,55.96
2022-08-05T23:10:35.591Z,55.45
2022-08-05T23:13:05.489Z,55.06
2022-08-05T23:15:36.352Z,55.63
2022-08-05T23:18:11.681Z,55.63
2022-08-05T23:20:45.197Z,55.66
2022-08-05T23:23:15.695Z,55.80
2022-08-05T23:25:51.635Z,55.60
2022-08-05T23:28:29.255Z,55.40
2022-08-05T23:31:16.728Z,55.44
2022-08-05T23:34:04.795Z,55.57
2022-08-05T23:36:44.442Z,55.51
2022-08-05T23:39:17.640Z,55.54
2022-08-05T23:42:01.233Z,55.38
2022-08-05T23:44:34.409Z,55.81
2022-08-05T23:47:15.203Z,56.03
2022-08-05T23:49:48.474Z,55.83
2022-08-05T23:52:49.517Z,55.96
2022-08-05T23:55:20.395Z,55.70
2022-08-05T23:57:52.915Z,55.65
